sensor_id;sensor_type;location;lat;lon;timestamp;P1;durP1;ratioP1;P2;durP2;ratioP2
68886;SDS011;55925;51.764;6.402;2024-02-16T00:01:31;6.63;;;1.92;;
68886;SDS011;55925;51.764;6.402;2024-02-16T00:03:57;5.07;;;2.00;;
68886;SDS011;55925;51.764;6.402;2024-02-16T00:06:23;3.83;;;1.70;;
68886;SDS011;55925;51.764;6.402;2024-02-16T00:08:49;5.20;;;2.00;;
68886;SDS011;55925;51.764;6.402;2024-02-16T00:11:15;6.18;;;1.50;;
68886;SDS011;55925;51.764;6.402;2024-02-16T00:13:41;4.15;;;1.90;;
68886;SDS011;55925;51.764;6.402;2024-02-16T00:16:07;5.80;;;1.98;;
68886;SDS011;55925;51.764;6.402;2024-02-16T00:18:33;7.18;;;2.17;;
68886;SDS011;55925;51.764;6.402;2024-02-16T00:20:59;4.00;;;1.80;;
68886;SDS011;55925;51.764;6.402;2024-02-16T00:23:26;4.75;;;1.50;;
68886;SDS011;55925;51.764;6.402;2024-02-16T00:25:52;5.22;;;1.85;;
68886;SDS011;55925;51.764;6.402;2024-02-16T00:28:18;4.35;;;1.65;;
68886;SDS011;55925;51.764;6.402;2024-02-16T00:30:44;3.95;;;2.08;;
68886;SDS011;55925;51.764;6.402;2024-02-16T00:33:12;4.80;;;1.80;;
68886;SDS011;55925;51.764;6.402;2024-02-16T00:35:38;5.18;;;1.67;;
68886;SDS011;55925;51.764;6.402;2024-02-16T00:38:04;5.00;;;1.80;;
68886;SDS011;55925;51.764;6.402;2024-02-16T00:40:30;5.53;;;1.77;;
68886;SDS011;55925;51.764;6.402;2024-02-16T00:42:56;4.95;;;1.80;;
68886;SDS011;55925;51.764;6.402;2024-02-16T00:45:22;5.07;;;1.48;;
68886;SDS011;55925;51.764;6.402;2024-02-16T00:47:48;4.78;;;1.88;;
68886;SDS011;55925;51.764;6.402;2024-02-16T00:50:14;4.97;;;1.70;;
68886;SDS011;55925;51.764;6.402;2024-02-16T00:52:40;5.72;;;2.00;;
68886;SDS011;55925;51.764;6.402;2024-02-16T00:55:07;5.97;;;2.35;;
68886;SDS011;55925;51.764;6.402;2024-02-16T00:57:33;7.25;;;2.00;;
68886;SDS011;55925;51.764;6.402;2024-02-16T00:59:59;4.45;;;2.10;;
68886;SDS011;55925;51.764;6.402;2024-02-16T01:02:25;5.55;;;2.05;;
68886;SDS011;55925;51.764;6.402;2024-02-16T01:04:51;5.20;;;1.60;;
68886;SDS011;55925;51.764;6.402;2024-02-16T01:07:17;4.90;;;1.90;;
68886;SDS011;55925;51.764;6.402;2024-02-16T01:09:43;7.97;;;2.05;;
68886;SDS011;55925;51.764;6.402;2024-02-16T01:12:09;4.85;;;1.70;;
68886;SDS011;55925;51.764;6.402;2024-02-16T01:14:35;5.85;;;1.67;;
68886;SDS011;55925;51.764;6.402;2024-02-16T01:17:01;8.80;;;2.10;;
68886;SDS011;55925;51.764;6.402;2024-02-16T01:19:28;5.38;;;1.63;;
68886;SDS011;55925;51.764;6.402;2024-02-16T01:21:55;5.45;;;1.90;;
68886;SDS011;55925;51.764;6.402;2024-02-16T01:24:23;4.97;;;1.77;;
68886;SDS011;55925;51.764;6.402;2024-02-16T01:26:48;5.25;;;2.10;;
68886;SDS011;55925;51.764;6.402;2024-02-16T01:29:14;4.90;;;1.98;;
68886;SDS011;55925;51.764;6.402;2024-02-16T01:31:40;5.55;;;2.00;;
68886;SDS011;55925;51.764;6.402;2024-02-16T01:34:06;5.20;;;1.95;;
68886;SDS011;55925;51.764;6.402;2024-02-16T01:36:32;7.50;;;1.92;;
68886;SDS011;55925;51.764;6.402;2024-02-16T01:38:58;5.00;;;2.25;;
68886;SDS011;55925;51.764;6.402;2024-02-16T01:41:24;4.85;;;2.17;;
68886;SDS011;55925;51.764;6.402;2024-02-16T01:43:53;4.43;;;1.77;;
68886;SDS011;55925;51.764;6.402;2024-02-16T01:46:22;6.40;;;2.53;;
68886;SDS011;55925;51.764;6.402;2024-02-16T01:48:48;4.47;;;2.10;;
68886;SDS011;55925;51.764;6.402;2024-02-16T01:51:15;6.20;;;2.10;;
68886;SDS011;55925;51.764;6.402;2024-02-16T01:53:41;6.13;;;2.10;;
68886;SDS011;55925;51.764;6.402;2024-02-16T01:56:07;5.25;;;1.80;;
68886;SDS011;55925;51.764;6.402;2024-02-16T01:58:34;6.68;;;2.03;;
68886;SDS011;55925;51.764;6.402;2024-02-16T02:01:00;6.05;;;1.83;;
68886;SDS011;55925;51.764;6.402;2024-02-16T02:03:26;6.22;;;1.90;;
68886;SDS011;55925;51.764;6.402;2024-02-16T02:05:52;5.25;;;2.03;;
68886;SDS011;55925;51.764;6.402;2024-02-16T02:08:19;6.20;;;2.25;;
68886;SDS011;55925;51.764;6.402;2024-02-16T02:10:45;5.65;;;1.90;;
68886;SDS011;55925;51.764;6.402;2024-02-16T02:13:11;4.38;;;1.90;;
68886;SDS011;55925;51.764;6.402;2024-02-16T02:15:37;8.15;;;1.83;;
68886;SDS011;55925;51.764;6.402;2024-02-16T02:18:03;4.75;;;1.75;;
68886;SDS011;55925;51.764;6.402;2024-02-16T02:20:29;6.50;;;1.90;;
68886;SDS011;55925;51.764;6.402;2024-02-16T02:22:55;4.53;;;1.70;;
68886;SDS011;55925;51.764;6.402;2024-02-16T02:25:21;4.50;;;2.20;;
68886;SDS011;55925;51.764;6.402;2024-02-16T02:27:49;6.88;;;1.88;;
68886;SDS011;55925;51.764;6.402;2024-02-16T02:30:16;4.88;;;1.70;;
68886;SDS011;55925;51.764;6.402;2024-02-16T02:32:42;5.35;;;1.75;;
68886;SDS011;55925;51.764;6.402;2024-02-16T02:35:08;6.57;;;2.08;;
68886;SDS011;55925;51.764;6.402;2024-02-16T02:37:34;5.75;;;1.70;;
68886;SDS011;55925;51.764;6.402;2024-02-16T02:40:00;4.15;;;1.67;;
68886;SDS011;55925;51.764;6.402;2024-02-16T02:42:26;5.97;;;1.90;;
68886;SDS011;55925;51.764;6.402;2024-02-16T02:44:53;3.90;;;1.90;;
68886;SDS011;55925;51.764;6.402;2024-02-16T02:47:19;8.05;;;1.90;;
68886;SDS011;55925;51.764;6.402;2024-02-16T02:49:45;5.70;;;1.75;;
68886;SDS011;55925;51.764;6.402;2024-02-16T02:52:11;3.92;;;2.10;;
68886;SDS011;55925;51.764;6.402;2024-02-16T02:54:37;6.03;;;1.85;;
68886;SDS011;55925;51.764;6.402;2024-02-16T02:57:03;7.13;;;2.17;;
68886;SDS011;55925;51.764;6.402;2024-02-16T02:59:29;8.48;;;2.05;;
68886;SDS011;55925;51.764;6.402;2024-02-16T03:01:55;6.82;;;1.85;;
68886;SDS011;55925;51.764;6.402;2024-02-16T03:04:21;4.88;;;1.80;;
68886;SDS011;55925;51.764;6.402;2024-02-16T03:06:47;4.43;;;1.70;;
68886;SDS011;55925;51.764;6.402;2024-02-16T03:09:13;4.13;;;1.80;;
68886;SDS011;55925;51.764;6.402;2024-02-16T03:11:39;3.58;;;1.60;;
68886;SDS011;55925;51.764;6.402;2024-02-16T03:14:05;4.38;;;2.10;;
68886;SDS011;55925;51.764;6.402;2024-02-16T03:16:33;6.53;;;2.00;;
68886;SDS011;55925;51.764;6.402;2024-02-16T03:18:59;4.80;;;1.90;;
68886;SDS011;55925;51.764;6.402;2024-02-16T03:21:25;4.72;;;1.70;;
68886;SDS011;55925;51.764;6.402;2024-02-16T03:23:52;6.63;;;1.88;;
68886;SDS011;55925;51.764;6.402;2024-02-16T03:26:18;4.97;;;2.00;;
68886;SDS011;55925;51.764;6.402;2024-02-16T03:28:45;4.57;;;1.98;;
68886;SDS011;55925;51.764;6.402;2024-02-16T03:31:18;6.30;;;2.00;;
68886;SDS011;55925;51.764;6.402;2024-02-16T03:33:45;4.47;;;1.73;;
68886;SDS011;55925;51.764;6.402;2024-02-16T03:36:11;7.38;;;2.00;;
68886;SDS011;55925;51.764;6.402;2024-02-16T03:38:40;6.22;;;2.22;;
68886;SDS011;55925;51.764;6.402;2024-02-16T03:41:06;6.60;;;2.28;;
68886;SDS011;55925;51.764;6.402;2024-02-16T03:43:32;6.72;;;1.70;;
68886;SDS011;55925;51.764;6.402;2024-02-16T03:45:58;4.70;;;1.88;;
68886;SDS011;55925;51.764;6.402;2024-02-16T03:48:24;4.63;;;1.90;;
68886;SDS011;55925;51.764;6.402;2024-02-16T03:50:50;7.03;;;2.03;;
68886;SDS011;55925;51.764;6.402;2024-02-16T03:53:16;4.38;;;1.60;;
68886;SDS011;55925;51.764;6.402;2024-02-16T03:55:43;4.75;;;1.83;;
68886;SDS011;55925;51.764;6.402;2024-02-16T03:58:09;5.57;;;1.63;;
68886;SDS011;55925;51.764;6.402;2024-02-16T04:00:35;4.97;;;2.08;;
68886;SDS011;55925;51.764;6.402;2024-02-16T04:03:01;4.78;;;2.03;;
68886;SDS011;55925;51.764;6.402;2024-02-16T04:05:27;7.35;;;1.95;;
68886;SDS011;55925;51.764;6.402;2024-02-16T04:07:57;5.85;;;2.10;;
68886;SDS011;55925;51.764;6.402;2024-02-16T04:10:26;5.55;;;1.98;;
68886;SDS011;55925;51.764;6.402;2024-02-16T04:12:55;6.30;;;2.00;;
68886;SDS011;55925;51.764;6.402;2024-02-16T04:15:21;7.03;;;2.28;;
68886;SDS011;55925;51.764;6.402;2024-02-16T04:17:47;5.60;;;2.42;;
68886;SDS011;55925;51.764;6.402;2024-02-16T04:20:15;6.88;;;1.92;;
68886;SDS011;55925;51.764;6.402;2024-02-16T04:22:41;5.10;;;2.10;;
68886;SDS011;55925;51.764;6.402;2024-02-16T04:25:07;7.32;;;2.78;;
68886;SDS011;55925;51.764;6.402;2024-02-16T04:27:34;6.45;;;1.80;;
68886;SDS011;55925;51.764;6.402;2024-02-16T04:30:00;5.80;;;1.98;;
68886;SDS011;55925;51.764;6.402;2024-02-16T04:32:26;5.00;;;2.00;;
68886;SDS011;55925;51.764;6.402;2024-02-16T04:34:52;4.60;;;2.20;;
68886;SDS011;55925;51.764;6.402;2024-02-16T04:37:21;8.13;;;2.97;;
68886;SDS011;55925;51.764;6.402;2024-02-16T04:39:47;3.97;;;1.83;;
68886;SDS011;55925;51.764;6.402;2024-02-16T04:42:13;5.88;;;2.10;;
68886;SDS011;55925;51.764;6.402;2024-02-16T04:44:38;6.25;;;2.10;;
68886;SDS011;55925;51.764;6.402;2024-02-16T04:47:05;4.90;;;1.90;;
68886;SDS011;55925;51.764;6.402;2024-02-16T04:49:31;7.03;;;2.55;;
68886;SDS011;55925;51.764;6.402;2024-02-16T04:51:57;6.50;;;2.28;;
68886;SDS011;55925;51.764;6.402;2024-02-16T04:54:23;7.88;;;2.10;;
68886;SDS011;55925;51.764;6.402;2024-02-16T04:56:49;5.35;;;2.42;;
68886;SDS011;55925;51.764;6.402;2024-02-16T04:59:16;5.03;;;2.00;;
68886;SDS011;55925;51.764;6.402;2024-02-16T05:01:45;4.60;;;1.95;;
68886;SDS011;55925;51.764;6.402;2024-02-16T05:04:12;4.45;;;1.88;;
68886;SDS011;55925;51.764;6.402;2024-02-16T05:06:39;5.45;;;2.33;;
68886;SDS011;55925;51.764;6.402;2024-02-16T05:09:05;6.32;;;2.22;;
68886;SDS011;55925;51.764;6.402;2024-02-16T05:11:32;5.18;;;1.73;;
68886;SDS011;55925;51.764;6.402;2024-02-16T05:13:58;6.30;;;2.20;;
68886;SDS011;55925;51.764;6.402;2024-02-16T05:16:24;5.75;;;2.42;;
68886;SDS011;55925;51.764;6.402;2024-02-16T05:18:50;6.70;;;2.60;;
68886;SDS011;55925;51.764;6.402;2024-02-16T05:21:16;5.93;;;2.28;;
68886;SDS011;55925;51.764;6.402;2024-02-16T05:23:42;5.55;;;2.10;;
68886;SDS011;55925;51.764;6.402;2024-02-16T05:26:08;4.95;;;1.95;;
68886;SDS011;55925;51.764;6.402;2024-02-16T05:28:34;5.20;;;2.55;;
68886;SDS011;55925;51.764;6.402;2024-02-16T05:31:03;6.10;;;2.05;;
68886;SDS011;55925;51.764;6.402;2024-02-16T05:33:39;6.78;;;2.25;;
68886;SDS011;55925;51.764;6.402;2024-02-16T05:36:05;4.70;;;1.90;;
68886;SDS011;55925;51.764;6.402;2024-02-16T05:38:31;5.38;;;2.25;;
68886;SDS011;55925;51.764;6.402;2024-02-16T05:41:00;6.10;;;2.00;;
68886;SDS011;55925;51.764;6.402;2024-02-16T05:43:26;5.47;;;2.08;;
68886;SDS011;55925;51.764;6.402;2024-02-16T05:45:52;6.28;;;2.03;;
68886;SDS011;55925;51.764;6.402;2024-02-16T05:48:18;6.05;;;1.80;;
68886;SDS011;55925;51.764;6.402;2024-02-16T05:50:44;6.13;;;2.10;;
68886;SDS011;55925;51.764;6.402;2024-02-16T05:53:10;9.45;;;2.05;;
68886;SDS011;55925;51.764;6.402;2024-02-16T05:55:36;5.07;;;1.88;;
68886;SDS011;55925;51.764;6.402;2024-02-16T05:58:02;7.82;;;2.20;;
68886;SDS011;55925;51.764;6.402;2024-02-16T06:00:33;10.27;;;2.60;;
68886;SDS011;55925;51.764;6.402;2024-02-16T06:02:59;7.47;;;2.15;;
68886;SDS011;55925;51.764;6.402;2024-02-16T06:05:26;5.80;;;2.40;;
68886;SDS011;55925;51.764;6.402;2024-02-16T06:07:53;4.70;;;2.00;;
68886;SDS011;55925;51.764;6.402;2024-02-16T06:10:21;6.68;;;2.22;;
68886;SDS011;55925;51.764;6.402;2024-02-16T06:12:47;5.57;;;1.92;;
68886;SDS011;55925;51.764;6.402;2024-02-16T06:15:13;6.43;;;2.10;;
68886;SDS011;55925;51.764;6.402;2024-02-16T06:17:40;5.25;;;2.13;;
68886;SDS011;55925;51.764;6.402;2024-02-16T06:20:06;4.65;;;2.10;;
68886;SDS011;55925;51.764;6.402;2024-02-16T06:22:34;5.35;;;2.20;;
68886;SDS011;55925;51.764;6.402;2024-02-16T06:25:00;5.13;;;2.30;;
68886;SDS011;55925;51.764;6.402;2024-02-16T06:27:26;6.57;;;2.20;;
68886;SDS011;55925;51.764;6.402;2024-02-16T06:29:53;5.43;;;2.10;;
68886;SDS011;55925;51.764;6.402;2024-02-16T06:32:19;6.30;;;2.40;;
68886;SDS011;55925;51.764;6.402;2024-02-16T06:34:45;6.63;;;2.10;;
68886;SDS011;55925;51.764;6.402;2024-02-16T06:37:11;4.32;;;1.88;;
68886;SDS011;55925;51.764;6.402;2024-02-16T06:39:38;6.03;;;2.22;;
68886;SDS011;55925;51.764;6.402;2024-02-16T06:42:05;8.27;;;2.60;;
68886;SDS011;55925;51.764;6.402;2024-02-16T06:44:31;6.40;;;2.65;;
68886;SDS011;55925;51.764;6.402;2024-02-16T06:46:58;5.53;;;2.20;;
68886;SDS011;55925;51.764;6.402;2024-02-16T06:49:24;4.35;;;1.75;;
68886;SDS011;55925;51.764;6.402;2024-02-16T06:51:50;5.18;;;2.13;;
68886;SDS011;55925;51.764;6.402;2024-02-16T06:54:16;4.95;;;1.85;;
68886;SDS011;55925;51.764;6.402;2024-02-16T06:56:42;7.60;;;2.17;;
68886;SDS011;55925;51.764;6.402;2024-02-16T06:59:09;7.28;;;2.20;;
68886;SDS011;55925;51.764;6.402;2024-02-16T07:01:35;6.47;;;2.05;;
68886;SDS011;55925;51.764;6.402;2024-02-16T07:04:01;5.10;;;2.08;;
68886;SDS011;55925;51.764;6.402;2024-02-16T07:06:27;7.75;;;2.40;;
68886;SDS011;55925;51.764;6.402;2024-02-16T07:08:53;6.20;;;2.50;;
68886;SDS011;55925;51.764;6.402;2024-02-16T07:11:19;8.65;;;2.60;;
68886;SDS011;55925;51.764;6.402;2024-02-16T07:13:46;9.90;;;2.95;;
68886;SDS011;55925;51.764;6.402;2024-02-16T07:16:12;6.10;;;2.22;;
68886;SDS011;55925;51.764;6.402;2024-02-16T07:18:38;5.70;;;2.28;;
68886;SDS011;55925;51.764;6.402;2024-02-16T07:21:04;4.55;;;2.22;;
68886;SDS011;55925;51.764;6.402;2024-02-16T07:23:30;7.72;;;2.35;;
68886;SDS011;55925;51.764;6.402;2024-02-16T07:25:56;4.68;;;2.20;;
68886;SDS011;55925;51.764;6.402;2024-02-16T07:28:23;4.80;;;2.17;;
68886;SDS011;55925;51.764;6.402;2024-02-16T07:30:49;5.40;;;2.25;;
68886;SDS011;55925;51.764;6.402;2024-02-16T07:33:16;6.22;;;2.45;;
68886;SDS011;55925;51.764;6.402;2024-02-16T07:35:42;8.73;;;1.90;;
68886;SDS011;55925;51.764;6.402;2024-02-16T07:38:09;6.63;;;2.10;;
68886;SDS011;55925;51.764;6.402;2024-02-16T07:40:35;8.57;;;2.50;;
68886;SDS011;55925;51.764;6.402;2024-02-16T07:43:01;4.90;;;2.13;;
68886;SDS011;55925;51.764;6.402;2024-02-16T07:45:28;4.97;;;2.30;;
68886;SDS011;55925;51.764;6.402;2024-02-16T07:47:54;5.82;;;2.47;;
68886;SDS011;55925;51.764;6.402;2024-02-16T07:50:20;6.13;;;2.20;;
68886;SDS011;55925;51.764;6.402;2024-02-16T07:52:46;5.85;;;2.45;;
68886;SDS011;55925;51.764;6.402;2024-02-16T07:55:12;5.45;;;2.13;;
68886;SDS011;55925;51.764;6.402;2024-02-16T07:57:38;4.78;;;2.40;;
68886;SDS011;55925;51.764;6.402;2024-02-16T08:00:05;5.60;;;2.35;;
68886;SDS011;55925;51.764;6.402;2024-02-16T08:02:31;6.13;;;2.42;;
68886;SDS011;55925;51.764;6.402;2024-02-16T08:04:58;8.98;;;2.50;;
68886;SDS011;55925;51.764;6.402;2024-02-16T08:07:24;6.15;;;2.25;;
68886;SDS011;55925;51.764;6.402;2024-02-16T08:09:50;9.13;;;2.70;;
68886;SDS011;55925;51.764;6.402;2024-02-16T08:12:16;5.35;;;1.88;;
68886;SDS011;55925;51.764;6.402;2024-02-16T08:14:43;5.72;;;2.40;;
68886;SDS011;55925;51.764;6.402;2024-02-16T08:17:10;8.35;;;2.25;;
68886;SDS011;55925;51.764;6.402;2024-02-16T08:19:36;7.70;;;2.40;;
68886;SDS011;55925;51.764;6.402;2024-02-16T08:22:03;6.43;;;2.50;;
68886;SDS011;55925;51.764;6.402;2024-02-16T08:24:35;4.80;;;2.08;;
68886;SDS011;55925;51.764;6.402;2024-02-16T08:27:01;8.25;;;2.20;;
68886;SDS011;55925;51.764;6.402;2024-02-16T08:29:27;5.70;;;2.50;;
68886;SDS011;55925;51.764;6.402;2024-02-16T08:31:56;4.72;;;2.15;;
68886;SDS011;55925;51.764;6.402;2024-02-16T08:34:22;6.13;;;2.28;;
68886;SDS011;55925;51.764;6.402;2024-02-16T08:36:51;5.70;;;2.10;;
68886;SDS011;55925;51.764;6.402;2024-02-16T08:39:17;6.78;;;2.50;;
68886;SDS011;55925;51.764;6.402;2024-02-16T08:41:45;5.97;;;2.28;;
68886;SDS011;55925;51.764;6.402;2024-02-16T08:44:14;6.55;;;2.30;;
68886;SDS011;55925;51.764;6.402;2024-02-16T08:46:40;5.80;;;2.33;;
68886;SDS011;55925;51.764;6.402;2024-02-16T08:49:06;11.88;;;2.25;;
68886;SDS011;55925;51.764;6.402;2024-02-16T08:51:32;7.38;;;2.40;;
68886;SDS011;55925;51.764;6.402;2024-02-16T08:53:59;10.00;;;2.35;;
68886;SDS011;55925;51.764;6.402;2024-02-16T08:56:25;7.40;;;2.78;;
68886;SDS011;55925;51.764;6.402;2024-02-16T08:58:51;5.90;;;2.30;;
68886;SDS011;55925;51.764;6.402;2024-02-16T09:01:17;6.10;;;2.33;;
68886;SDS011;55925;51.764;6.402;2024-02-16T09:03:43;4.13;;;1.80;;
68886;SDS011;55925;51.764;6.402;2024-02-16T09:06:09;9.80;;;2.65;;
68886;SDS011;55925;51.764;6.402;2024-02-16T09:08:35;4.47;;;2.10;;
68886;SDS011;55925;51.764;6.402;2024-02-16T09:11:05;6.35;;;3.08;;
68886;SDS011;55925;51.764;6.402;2024-02-16T09:13:32;5.47;;;1.90;;
68886;SDS011;55925;51.764;6.402;2024-02-16T09:15:58;6.45;;;2.55;;
68886;SDS011;55925;51.764;6.402;2024-02-16T09:18:24;5.40;;;2.20;;
68886;SDS011;55925;51.764;6.402;2024-02-16T09:20:50;5.68;;;2.38;;
68886;SDS011;55925;51.764;6.402;2024-02-16T09:23:16;6.43;;;2.30;;
68886;SDS011;55925;51.764;6.402;2024-02-16T09:25:42;4.43;;;1.98;;
68886;SDS011;55925;51.764;6.402;2024-02-16T09:28:08;7.25;;;2.20;;
68886;SDS011;55925;51.764;6.402;2024-02-16T09:30:36;6.25;;;2.53;;
68886;SDS011;55925;51.764;6.402;2024-02-16T09:33:02;5.93;;;2.00;;
68886;SDS011;55925;51.764;6.402;2024-02-16T09:35:28;8.18;;;2.35;;
68886;SDS011;55925;51.764;6.402;2024-02-16T09:37:54;5.85;;;2.35;;
68886;SDS011;55925;51.764;6.402;2024-02-16T09:40:21;7.47;;;2.40;;
68886;SDS011;55925;51.764;6.402;2024-02-16T09:42:50;6.38;;;2.45;;
68886;SDS011;55925;51.764;6.402;2024-02-16T09:45:16;6.20;;;2.90;;
68886;SDS011;55925;51.764;6.402;2024-02-16T09:47:45;5.18;;;2.30;;
68886;SDS011;55925;51.764;6.402;2024-02-16T09:50:12;8.18;;;2.70;;
68886;SDS011;55925;51.764;6.402;2024-02-16T09:52:38;5.57;;;2.58;;
68886;SDS011;55925;51.764;6.402;2024-02-16T09:55:05;8.30;;;2.55;;
68886;SDS011;55925;51.764;6.402;2024-02-16T09:57:33;6.55;;;2.35;;
68886;SDS011;55925;51.764;6.402;2024-02-16T09:59:59;6.90;;;3.38;;
68886;SDS011;55925;51.764;6.402;2024-02-16T10:02:25;8.82;;;2.55;;
68886;SDS011;55925;51.764;6.402;2024-02-16T10:04:51;5.97;;;2.30;;
68886;SDS011;55925;51.764;6.402;2024-02-16T10:07:19;5.25;;;2.55;;
68886;SDS011;55925;51.764;6.402;2024-02-16T10:09:45;6.57;;;2.90;;
68886;SDS011;55925;51.764;6.402;2024-02-16T10:12:17;5.95;;;2.60;;
68886;SDS011;55925;51.764;6.402;2024-02-16T10:14:53;11.55;;;3.35;;
68886;SDS011;55925;51.764;6.402;2024-02-16T10:17:19;9.35;;;2.90;;
68886;SDS011;55925;51.764;6.402;2024-02-16T10:19:54;6.57;;;2.90;;
68886;SDS011;55925;51.764;6.402;2024-02-16T10:22:20;8.95;;;2.80;;
68886;SDS011;55925;51.764;6.402;2024-02-16T10:24:48;10.48;;;2.58;;
68886;SDS011;55925;51.764;6.402;2024-02-16T10:27:18;6.03;;;2.70;;
68886;SDS011;55925;51.764;6.402;2024-02-16T10:29:46;7.78;;;3.10;;
68886;SDS011;55925;51.764;6.402;2024-02-16T10:32:14;7.47;;;3.13;;
68886;SDS011;55925;51.764;6.402;2024-02-16T10:34:40;6.35;;;2.80;;
68886;SDS011;55925;51.764;6.402;2024-02-16T10:37:06;6.28;;;2.67;;
68886;SDS011;55925;51.764;6.402;2024-02-16T10:39:34;7.53;;;2.97;;
68886;SDS011;55925;51.764;6.402;2024-02-16T10:42:03;7.90;;;3.15;;
68886;SDS011;55925;51.764;6.402;2024-02-16T10:44:30;7.80;;;3.00;;
68886;SDS011;55925;51.764;6.402;2024-02-16T10:46:56;7.68;;;2.60;;
68886;SDS011;55925;51.764;6.402;2024-02-16T10:49:26;7.10;;;2.70;;
68886;SDS011;55925;51.764;6.402;2024-02-16T10:51:53;8.05;;;3.35;;
68886;SDS011;55925;51.764;6.402;2024-02-16T10:54:22;7.15;;;2.75;;
68886;SDS011;55925;51.764;6.402;2024-02-16T10:56:49;6.70;;;3.00;;
68886;SDS011;55925;51.764;6.402;2024-02-16T10:59:16;8.38;;;3.20;;
68886;SDS011;55925;51.764;6.402;2024-02-16T11:01:42;5.75;;;2.80;;
68886;SDS011;55925;51.764;6.402;2024-02-16T11:04:11;6.63;;;2.85;;
68886;SDS011;55925;51.764;6.402;2024-02-16T11:06:53;5.65;;;2.53;;
68886;SDS011;55925;51.764;6.402;2024-02-16T11:09:28;8.13;;;3.08;;
68886;SDS011;55925;51.764;6.402;2024-02-16T11:11:54;11.43;;;2.83;;
68886;SDS011;55925;51.764;6.402;2024-02-16T11:14:21;7.60;;;3.30;;
68886;SDS011;55925;51.764;6.402;2024-02-16T11:16:53;8.77;;;2.85;;
68886;SDS011;55925;51.764;6.402;2024-02-16T11:19:21;8.80;;;3.28;;
68886;SDS011;55925;51.764;6.402;2024-02-16T11:21:57;7.53;;;3.33;;
68886;SDS011;55925;51.764;6.402;2024-02-16T11:24:33;9.13;;;3.25;;
68886;SDS011;55925;51.764;6.402;2024-02-16T11:27:03;9.25;;;3.75;;
68886;SDS011;55925;51.764;6.402;2024-02-16T11:29:33;10.23;;;4.40;;
68886;SDS011;55925;51.764;6.402;2024-02-16T11:32:00;10.30;;;4.03;;
68886;SDS011;55925;51.764;6.402;2024-02-16T11:34:27;8.98;;;3.50;;
68886;SDS011;55925;51.764;6.402;2024-02-16T11:36:57;10.38;;;4.15;;
68886;SDS011;55925;51.764;6.402;2024-02-16T11:39:23;8.20;;;3.97;;
68886;SDS011;55925;51.764;6.402;2024-02-16T11:42:03;8.75;;;3.67;;
68886;SDS011;55925;51.764;6.402;2024-02-16T11:44:34;9.93;;;4.10;;
68886;SDS011;55925;51.764;6.402;2024-02-16T11:47:01;9.52;;;4.10;;
68886;SDS011;55925;51.764;6.402;2024-02-16T11:49:31;9.80;;;4.00;;
68886;SDS011;55925;51.764;6.402;2024-02-16T11:51:59;8.50;;;4.00;;
68886;SDS011;55925;51.764;6.402;2024-02-16T11:54:25;9.55;;;4.30;;
68886;SDS011;55925;51.764;6.402;2024-02-16T11:56:51;11.25;;;4.38;;
68886;SDS011;55925;51.764;6.402;2024-02-16T11:59:20;9.73;;;3.95;;
68886;SDS011;55925;51.764;6.402;2024-02-16T12:01:50;9.57;;;4.47;;
68886;SDS011;55925;51.764;6.402;2024-02-16T12:04:24;9.40;;;4.20;;
68886;SDS011;55925;51.764;6.402;2024-02-16T12:06:59;9.00;;;4.38;;
68886;SDS011;55925;51.764;6.402;2024-02-16T12:09:26;8.10;;;3.90;;
68886;SDS011;55925;51.764;6.402;2024-02-16T12:11:53;10.43;;;4.75;;
68886;SDS011;55925;51.764;6.402;2024-02-16T12:14:20;10.35;;;4.30;;
68886;SDS011;55925;51.764;6.402;2024-02-16T12:16:47;11.85;;;5.43;;
68886;SDS011;55925;51.764;6.402;2024-02-16T12:19:13;9.75;;;4.55;;
68886;SDS011;55925;51.764;6.402;2024-02-16T12:21:39;9.93;;;4.30;;
68886;SDS011;55925;51.764;6.402;2024-02-16T12:24:05;11.70;;;4.38;;
68886;SDS011;55925;51.764;6.402;2024-02-16T12:26:31;10.32;;;5.38;;
68886;SDS011;55925;51.764;6.402;2024-02-16T12:28:57;12.50;;;4.88;;
68886;SDS011;55925;51.764;6.402;2024-02-16T12:31:23;11.30;;;5.40;;
68886;SDS011;55925;51.764;6.402;2024-02-16T12:33:51;14.63;;;5.65;;
68886;SDS011;55925;51.764;6.402;2024-02-16T12:36:17;13.43;;;4.70;;
68886;SDS011;55925;51.764;6.402;2024-02-16T12:38:43;10.32;;;4.88;;
68886;SDS011;55925;51.764;6.402;2024-02-16T12:41:09;14.52;;;5.38;;
68886;SDS011;55925;51.764;6.402;2024-02-16T12:43:35;13.52;;;5.25;;
68886;SDS011;55925;51.764;6.402;2024-02-16T12:46:01;12.15;;;5.40;;
68886;SDS011;55925;51.764;6.402;2024-02-16T12:48:29;12.45;;;5.50;;
68886;SDS011;55925;51.764;6.402;2024-02-16T12:50:55;12.80;;;6.07;;
68886;SDS011;55925;51.764;6.402;2024-02-16T12:53:23;12.48;;;5.30;;
68886;SDS011;55925;51.764;6.402;2024-02-16T12:55:50;11.77;;;4.97;;
68886;SDS011;55925;51.764;6.402;2024-02-16T12:58:16;14.68;;;5.43;;
68886;SDS011;55925;51.764;6.402;2024-02-16T13:00:42;11.32;;;5.07;;
68886;SDS011;55925;51.764;6.402;2024-02-16T13:03:08;14.13;;;6.47;;
68886;SDS011;55925;51.764;6.402;2024-02-16T13:05:34;14.80;;;6.40;;
68886;SDS011;55925;51.764;6.402;2024-02-16T13:08:00;11.88;;;6.03;;
68886;SDS011;55925;51.764;6.402;2024-02-16T13:10:26;13.10;;;5.97;;
68886;SDS011;55925;51.764;6.402;2024-02-16T13:12:52;13.00;;;6.05;;
68886;SDS011;55925;51.764;6.402;2024-02-16T13:15:18;12.60;;;6.32;;
68886;SDS011;55925;51.764;6.402;2024-02-16T13:17:44;10.35;;;5.60;;
68886;SDS011;55925;51.764;6.402;2024-02-16T13:20:10;10.63;;;5.32;;
68886;SDS011;55925;51.764;6.402;2024-02-16T13:22:36;14.73;;;6.57;;
68886;SDS011;55925;51.764;6.402;2024-02-16T13:25:05;13.88;;;6.90;;
68886;SDS011;55925;51.764;6.402;2024-02-16T13:27:32;13.20;;;6.10;;
68886;SDS011;55925;51.764;6.402;2024-02-16T13:29:59;13.63;;;6.25;;
68886;SDS011;55925;51.764;6.402;2024-02-16T13:32:25;11.27;;;6.13;;
68886;SDS011;55925;51.764;6.402;2024-02-16T13:34:51;17.38;;;7.22;;
68886;SDS011;55925;51.764;6.402;2024-02-16T13:37:17;12.65;;;6.10;;
68886;SDS011;55925;51.764;6.402;2024-02-16T13:39:43;13.15;;;5.90;;
68886;SDS011;55925;51.764;6.402;2024-02-16T13:42:10;13.18;;;6.57;;
68886;SDS011;55925;51.764;6.402;2024-02-16T13:44:37;12.15;;;6.28;;
68886;SDS011;55925;51.764;6.402;2024-02-16T13:47:03;12.50;;;6.88;;
68886;SDS011;55925;51.764;6.402;2024-02-16T13:49:29;12.43;;;6.05;;
68886;SDS011;55925;51.764;6.402;2024-02-16T13:51:55;16.10;;;7.72;;
68886;SDS011;55925;51.764;6.402;2024-02-16T13:54:24;13.55;;;6.60;;
68886;SDS011;55925;51.764;6.402;2024-02-16T13:56:49;12.38;;;6.53;;
68886;SDS011;55925;51.764;6.402;2024-02-16T13:59:15;15.13;;;7.20;;
68886;SDS011;55925;51.764;6.402;2024-02-16T14:01:41;10.82;;;6.03;;
68886;SDS011;55925;51.764;6.402;2024-02-16T14:04:08;13.63;;;6.07;;
68886;SDS011;55925;51.764;6.402;2024-02-16T14:06:34;15.75;;;6.85;;
68886;SDS011;55925;51.764;6.402;2024-02-16T14:09:00;11.98;;;6.28;;
68886;SDS011;55925;51.764;6.402;2024-02-16T14:11:26;10.75;;;6.22;;
68886;SDS011;55925;51.764;6.402;2024-02-16T14:13:52;12.95;;;6.22;;
68886;SDS011;55925;51.764;6.402;2024-02-16T14:16:18;9.63;;;5.18;;
68886;SDS011;55925;51.764;6.402;2024-02-16T14:18:44;11.57;;;5.68;;
68886;SDS011;55925;51.764;6.402;2024-02-16T14:21:10;11.93;;;6.53;;
68886;SDS011;55925;51.764;6.402;2024-02-16T14:23:37;11.20;;;5.78;;
68886;SDS011;55925;51.764;6.402;2024-02-16T14:26:03;12.30;;;5.63;;
68886;SDS011;55925;51.764;6.402;2024-02-16T14:28:29;8.80;;;4.65;;
68886;SDS011;55925;51.764;6.402;2024-02-16T14:30:55;9.07;;;4.93;;
68886;SDS011;55925;51.764;6.402;2024-02-16T14:33:22;8.48;;;4.25;;
68886;SDS011;55925;51.764;6.402;2024-02-16T14:35:48;8.35;;;4.53;;
68886;SDS011;55925;51.764;6.402;2024-02-16T14:38:15;9.18;;;5.20;;
68886;SDS011;55925;51.764;6.402;2024-02-16T14:40:41;9.20;;;4.78;;
68886;SDS011;55925;51.764;6.402;2024-02-16T14:43:07;9.18;;;4.28;;